Weather at Noi Bai International Airport

Public forecast

Using degrees Celsius for public forecast. Weather courtesy of forecast.io.

Current aviation weather report (METAR) for Noi Bai International Airport

2024/06/20 18:00 (retrieved 13 minutes ago)

VVNB 201800Z 11007KT 8000 NSC 30/28 Q1001 NOSIG

Aviation forecast (TAF) for Noi Bai International Airport

2024/06/20 18:38 (retrieved 0 seconds ago)

TAF VVNB 201700Z 2018/2118 12007KT 8000 SCT020 TEMPO 2018/2021 4000 TSRA BKN015 FEW027CB TEMPO 2109/2114 4000 TSRA BKN015 FEW027CB